Аэропорт: Богашево. Томск

ICAO: UNTT

METAR:
2021-04-21 20:00:00
UNTT 212000Z 01002MPS CAVOK M05/M08 Q1030 R21/090060 NOSIG RMK QFE758
METAR:
2021-04-21 17:00:00
TAF UNTT 211700Z 2118/2203 02003MPS 9999 SCT030 TEMPO 2123/2201 0300 FZFG VV002